Time;durP1;ratioP1;P1;durP2;ratioP2;P2;SDS_P1;SDS_P2;PMS_P1;PMS_P2;Temp;Humidity;BMP_temperature;BMP_pressure;BME280_temperature;BME280_humidity;BME280_pressure;Samples;Min_cycle;Max_cycle;Signal;HPM_P1;HPM_P2
2021/08/17 00:00:17;;;;;;;3.93;2.20;;;24.10;54.10;;;;;;5063859;28;20527;-79
2021/08/17 00:02:45;;;;;;;13.73;2.90;;;24.00;54.00;;;;;;5063475;28;20446;-79
2021/08/17 00:05:13;;;;;;;6.33;2.37;;;24.00;54.00;;;;;;5064058;28;20420;-79
2021/08/17 00:07:42;;;;;;;4.87;1.90;;;24.10;54.10;;;;;;5063569;28;20528;-79
2021/08/17 00:10:11;;;;;;;3.77;2.00;;;24.00;53.80;;;;;;5063243;28;20994;-80
2021/08/17 00:12:39;;;;;;;9.27;2.97;;;24.00;53.80;;;;;;5062875;28;20482;-79
2021/08/17 00:15:08;;;;;;;8.13;2.30;;;24.00;53.60;;;;;;5062819;28;20484;-78
2021/08/17 00:17:36;;;;;;;4.90;2.00;;;24.00;53.60;;;;;;5062629;28;20960;-80
2021/08/17 00:20:04;;;;;;;5.03;2.13;;;24.00;53.70;;;;;;5063139;28;20469;-79
2021/08/17 00:22:32;;;;;;;7.30;2.60;;;24.00;53.40;;;;;;5063114;28;20454;-79
2021/08/17 00:25:02;;;;;;;7.57;2.50;;;24.00;53.60;;;;;;5064274;28;20429;-79
2021/08/17 00:27:29;;;;;;;4.43;1.83;;;24.00;53.60;;;;;;5066108;28;20528;-79
2021/08/17 00:29:57;;;;;;;6.93;2.53;;;23.90;53.50;;;;;;5047781;28;20486;-80
2021/08/17 00:32:25;;;;;;;4.97;2.00;;;23.90;53.40;;;;;;5044251;28;20516;-79
2021/08/17 00:34:53;;;;;;;7.03;2.30;;;23.90;53.60;;;;;;5044471;28;20457;-79
2021/08/17 00:37:21;;;;;;;5.60;2.10;;;23.90;53.40;;;;;;5043661;28;20492;-80
2021/08/17 00:39:49;;;;;;;7.10;2.33;;;23.90;53.50;;;;;;5043665;28;20512;-79
2021/08/17 00:42:18;;;;;;;4.30;1.90;;;23.90;53.30;;;;;;5043737;28;20478;-79
2021/08/17 00:44:46;;;;;;;3.40;2.03;;;23.90;53.30;;;;;;5043976;28;20434;-80
2021/08/17 00:47:14;;;;;;;6.57;2.20;;;23.80;53.30;;;;;;5060993;28;20436;-79
2021/08/17 00:49:42;;;;;;;6.30;1.77;;;23.80;53.40;;;;;;5064593;28;20515;-79
2021/08/17 00:52:10;;;;;;;3.80;2.20;;;23.80;53.40;;;;;;5062483;28;20537;-79
2021/08/17 00:54:38;;;;;;;3.50;1.90;;;23.80;53.40;;;;;;5062193;28;20520;-80
2021/08/17 00:57:06;;;;;;;6.20;2.07;;;23.80;53.30;;;;;;5062233;28;20416;-81
2021/08/17 00:59:36;;;;;;;7.50;2.43;;;23.70;53.20;;;;;;5061995;28;20460;-79
2021/08/17 01:02:04;;;;;;;3.50;2.13;;;23.70;53.40;;;;;;5061915;28;20470;-80
2021/08/17 01:04:33;;;;;;;3.10;2.00;;;23.70;53.40;;;;;;5062099;28;20524;-79
2021/08/17 01:07:01;;;;;;;5.90;2.00;;;23.70;53.40;;;;;;5062883;28;20428;-79
2021/08/17 01:09:29;;;;;;;4.50;2.03;;;23.70;53.40;;;;;;5062708;28;20466;-80
2021/08/17 01:11:59;;;;;;;6.20;2.10;;;23.60;53.30;;;;;;5062555;28;20564;-80
2021/08/17 01:14:27;;;;;;;4.30;2.13;;;23.60;53.40;;;;;;5069779;28;20545;-81
2021/08/17 01:16:56;;;;;;;5.03;2.20;;;23.50;53.40;;;;;;5062832;28;20440;-81
2021/08/17 01:19:24;;;;;;;5.90;2.07;;;23.50;53.60;;;;;;5063578;28;20460;-81
2021/08/17 01:21:51;;;;;;;3.60;1.80;;;23.50;53.40;;;;;;5064415;28;20515;-79
2021/08/17 01:24:19;;;;;;;8.63;2.60;;;23.50;53.30;;;;;;5064078;28;20472;-80
2021/08/17 01:26:48;;;;;;;6.17;2.30;;;23.50;53.30;;;;;;5064148;28;20425;-79
2021/08/17 01:29:16;;;;;;;5.00;2.13;;;23.50;53.50;;;;;;5064648;28;20478;-81
2021/08/17 01:31:44;;;;;;;6.20;2.03;;;23.50;53.30;;;;;;5062540;28;20461;-80
2021/08/17 01:34:12;;;;;;;4.57;2.30;;;23.50;53.40;;;;;;5066990;28;20538;-80
2021/08/17 01:36:40;;;;;;;2.40;1.60;;;23.40;53.40;;;;;;5067441;28;20446;-80
2021/08/17 01:39:08;;;;;;;3.37;2.00;;;23.50;53.50;;;;;;5066267;28;20505;-79
2021/08/17 01:41:35;;;;;;;4.57;1.80;;;23.40;53.30;;;;;;5059478;28;20479;-80
2021/08/17 01:44:08;;;;;;;4.67;2.03;;;23.40;53.40;;;;;;5077939;28;20524;-81
2021/08/17 01:46:37;;;;;;;5.23;1.80;;;23.40;53.50;;;;;;5065856;28;20552;-80
2021/08/17 01:49:04;;;;;;;6.80;2.30;;;23.40;53.40;;;;;;5075638;28;20542;-80
2021/08/17 01:51:32;;;;;;;5.40;2.20;;;23.30;53.40;;;;;;5071512;28;20443;-79
2021/08/17 01:54:02;;;;;;;4.23;2.00;;;23.30;53.40;;;;;;5074192;28;20551;-81
2021/08/17 01:56:30;;;;;;;6.67;2.30;;;23.30;53.40;;;;;;5073040;28;20473;-80
2021/08/17 01:58:58;;;;;;;3.43;2.10;;;23.30;53.30;;;;;;5069598;28;20517;-80
2021/08/17 02:01:27;;;;;;;4.63;2.10;;;23.30;53.30;;;;;;5061965;28;20449;-79
2021/08/17 02:03:55;;;;;;;6.37;2.30;;;23.30;53.40;;;;;;5064423;28;20412;-80
2021/08/17 02:06:23;;;;;;;6.77;2.80;;;23.40;53.40;;;;;;5065069;28;20469;-80
2021/08/17 02:08:50;;;;;;;7.73;2.70;;;23.30;53.40;;;;;;5065393;28;20717;-79
2021/08/17 02:11:18;;;;;;;5.00;2.40;;;23.30;53.50;;;;;;5064725;28;20448;-80
2021/08/17 02:13:46;;;;;;;4.70;2.27;;;23.30;53.50;;;;;;5065599;28;20542;-80
2021/08/17 02:16:14;;;;;;;5.50;2.63;;;23.20;53.60;;;;;;5065225;28;20504;-80
2021/08/17 02:18:43;;;;;;;4.03;2.13;;;23.20;53.60;;;;;;5065175;28;20462;-81
2021/08/17 02:21:11;;;;;;;4.10;2.17;;;23.20;53.70;;;;;;5065187;28;20411;-80
2021/08/17 02:23:39;;;;;;;5.33;2.23;;;23.20;53.80;;;;;;5064769;28;20521;-80
2021/08/17 02:26:07;;;;;;;3.30;2.00;;;23.20;53.60;;;;;;5065525;28;20532;-79
2021/08/17 02:28:35;;;;;;;4.90;2.10;;;23.10;53.50;;;;;;5064998;28;20484;-80
2021/08/17 02:31:03;;;;;;;4.53;2.00;;;23.10;53.50;;;;;;5064569;28;20948;-80
2021/08/17 02:33:30;;;;;;;4.97;2.50;;;23.10;53.60;;;;;;5064780;28;20497;-80
2021/08/17 02:35:59;;;;;;;4.67;2.20;;;23.10;53.60;;;;;;5064912;28;20510;-79
2021/08/17 02:38:27;;;;;;;8.13;2.37;;;23.10;53.60;;;;;;5065048;28;20462;-80
2021/08/17 02:40:55;;;;;;;6.50;2.23;;;23.10;53.60;;;;;;5065156;28;20488;-80
2021/08/17 02:43:24;;;;;;;6.60;2.00;;;23.00;53.50;;;;;;5066035;28;20434;-80
2021/08/17 02:45:52;;;;;;;6.10;1.83;;;23.00;53.60;;;;;;5064258;28;20559;-79
2021/08/17 02:48:20;;;;;;;4.97;2.53;;;23.00;53.70;;;;;;5064412;28;20499;-80
2021/08/17 02:50:48;;;;;;;3.50;2.10;;;23.00;53.70;;;;;;5065526;28;20533;-80
2021/08/17 02:53:17;;;;;;;4.67;2.63;;;23.00;53.60;;;;;;5066354;28;20438;-79
2021/08/17 02:55:45;;;;;;;8.90;2.53;;;23.00;53.60;;;;;;5064918;28;20545;-79
2021/08/17 02:58:13;;;;;;;6.20;2.20;;;23.00;53.60;;;;;;5063506;28;20567;-79
2021/08/17 03:00:41;;;;;;;6.57;2.50;;;23.00;53.60;;;;;;5065063;28;20427;-80
2021/08/17 03:03:09;;;;;;;8.17;3.20;;;23.00;53.50;;;;;;5065249;28;20442;-79
2021/08/17 03:05:37;;;;;;;8.40;2.60;;;23.00;53.60;;;;;;5066027;28;20437;-80
2021/08/17 03:08:05;;;;;;;5.37;2.47;;;22.90;53.50;;;;;;5065910;28;20540;-79
2021/08/17 03:10:36;;;;;;;8.87;2.30;;;22.90;53.50;;;;;;5065968;28;20517;-80
2021/08/17 03:13:04;;;;;;;5.37;2.10;;;22.90;53.60;;;;;;5065898;28;20437;-79
2021/08/17 03:15:33;;;;;;;4.13;2.20;;;22.90;53.70;;;;;;5065912;28;20502;-81
2021/08/17 03:18:01;;;;;;;3.57;2.10;;;22.90;53.60;;;;;;5067475;28;20581;-81
2021/08/17 03:20:29;;;;;;;6.23;2.33;;;22.80;53.60;;;;;;5067679;28;20465;-80
2021/08/17 03:22:57;;;;;;;4.90;2.83;;;22.80;53.60;;;;;;5067007;28;20434;-80
2021/08/17 03:25:26;;;;;;;7.00;2.30;;;22.80;53.60;;;;;;5066264;28;20528;-80
2021/08/17 03:27:55;;;;;;;4.67;2.13;;;22.80;54.20;;;;;;5064513;28;20470;-80
2021/08/17 03:30:24;;;;;;;8.00;2.30;;;22.80;53.60;;;;;;5065642;28;20532;-80
2021/08/17 03:32:51;;;;;;;6.77;2.47;;;22.80;53.60;;;;;;5064930;28;20452;-79
2021/08/17 03:35:19;;;;;;;7.80;2.60;;;22.80;53.60;;;;;;5064846;28;20460;-79
2021/08/17 03:37:47;;;;;;;3.10;2.10;;;22.80;53.60;;;;;;5062972;28;20451;-79
2021/08/17 03:40:17;;;;;;;4.47;2.13;;;22.80;53.60;;;;;;5063947;28;20568;-80
2021/08/17 03:42:45;;;;;;;5.53;2.33;;;22.80;53.60;;;;;;5063366;28;20535;-80
2021/08/17 03:45:15;;;;;;;5.30;2.60;;;22.80;53.60;;;;;;5059357;28;20470;-81
2021/08/17 03:47:42;;;;;;;4.63;2.17;;;22.80;53.60;;;;;;5054529;28;20493;-79
2021/08/17 03:50:12;;;;;;;3.23;1.67;;;22.80;53.60;;;;;;5053974;28;20512;-82
2021/08/17 03:52:40;;;;;;;4.27;2.17;;;22.70;53.60;;;;;;5051870;28;20458;-81
2021/08/17 03:55:08;;;;;;;4.37;2.10;;;22.80;53.70;;;;;;5050630;28;20810;-81
2021/08/17 03:57:36;;;;;;;5.27;2.33;;;22.80;53.60;;;;;;5063785;28;20532;-81
2021/08/17 04:00:05;;;;;;;4.70;2.07;;;22.80;53.60;;;;;;5060654;28;20549;-78
2021/08/17 04:02:34;;;;;;;4.63;2.20;;;22.80;53.50;;;;;;5058330;28;20461;-80
2021/08/17 04:05:05;;;;;;;4.77;1.90;;;22.70;53.40;;;;;;5059214;28;20431;-81
2021/08/17 04:07:33;;;;;;;7.10;2.13;;;22.70;53.50;;;;;;5056195;28;20429;-79
2021/08/17 04:10:01;;;;;;;2.97;2.50;;;22.70;53.40;;;;;;5059752;28;20514;-80
2021/08/17 04:12:29;;;;;;;5.63;2.63;;;22.70;53.50;;;;;;5058128;28;20497;-80
2021/08/17 04:14:57;;;;;;;9.97;2.57;;;22.70;53.40;;;;;;5065404;28;20444;-82
2021/08/17 04:17:24;;;;;;;7.27;2.60;;;22.70;53.40;;;;;;5068140;28;20475;-81
2021/08/17 04:19:54;;;;;;;5.57;2.33;;;22.70;53.40;;;;;;5073523;28;20492;-82
2021/08/17 04:22:22;;;;;;;4.13;2.20;;;22.70;53.40;;;;;;5069054;28;20464;-81
2021/08/17 04:24:49;;;;;;;3.90;2.00;;;22.70;53.20;;;;;;5068349;28;20472;-80
2021/08/17 04:27:17;;;;;;;3.90;2.17;;;22.70;53.30;;;;;;5071194;28;20442;-81
2021/08/17 04:29:45;;;;;;;2.87;2.10;;;22.70;53.30;;;;;;5069187;28;20480;-82
2021/08/17 04:32:13;;;;;;;4.17;1.93;;;22.70;53.40;;;;;;5072573;28;20965;-81
2021/08/17 04:34:41;;;;;;;6.67;2.00;;;22.80;53.60;;;;;;5071597;28;20500;-80
2021/08/17 04:37:10;;;;;;;3.20;2.03;;;22.70;53.30;;;;;;5068158;28;20537;-81
2021/08/17 04:39:38;;;;;;;9.33;2.27;;;22.70;53.20;;;;;;5066570;28;20520;-82
2021/08/17 04:42:06;;;;;;;7.20;2.60;;;22.70;53.20;;;;;;5066806;28;20472;-81
2021/08/17 04:44:33;;;;;;;3.07;2.00;;;22.70;53.40;;;;;;5065795;28;20469;-83
2021/08/17 04:47:01;;;;;;;5.07;2.13;;;22.70;53.40;;;;;;5066144;28;20537;-81
2021/08/17 04:49:29;;;;;;;6.53;2.17;;;22.60;53.30;;;;;;5066042;28;20557;-81
2021/08/17 04:51:57;;;;;;;5.93;2.40;;;22.70;53.30;;;;;;5065874;28;20524;-82
2021/08/17 04:54:26;;;;;;;4.63;1.73;;;22.70;53.30;;;;;;5065558;28;20524;-81
2021/08/17 04:56:54;;;;;;;5.23;2.07;;;22.70;53.30;;;;;;5065460;28;20525;-82
2021/08/17 04:59:22;;;;;;;6.80;2.60;;;22.60;53.20;;;;;;5065361;28;20496;-80
2021/08/17 05:01:50;;;;;;;2.87;1.93;;;22.60;53.20;;;;;;5072979;28;20412;-81
2021/08/17 05:04:18;;;;;;;5.23;2.20;;;22.60;53.30;;;;;;5064962;28;20819;-81
2021/08/17 05:06:46;;;;;;;3.30;2.20;;;22.60;53.20;;;;;;5064173;28;20422;-80
2021/08/17 05:09:13;;;;;;;4.60;2.60;;;22.60;53.30;;;;;;5064636;28;20764;-81
2021/08/17 05:11:43;;;;;;;5.43;2.13;;;22.60;53.20;;;;;;5064695;28;20429;-82
2021/08/17 05:14:10;;;;;;;4.03;1.70;;;22.60;53.20;;;;;;5064511;28;20468;-82
2021/08/17 05:16:38;;;;;;;5.50;2.67;;;22.60;53.30;;;;;;5064734;28;20573;-80
2021/08/17 05:19:06;;;;;;;7.40;2.43;;;22.60;53.30;;;;;;5064556;28;20428;-81
2021/08/17 05:21:34;;;;;;;3.43;2.00;;;22.60;53.30;;;;;;5064816;28;20897;-80
2021/08/17 05:24:02;;;;;;;7.77;2.83;;;22.60;53.20;;;;;;5065165;28;20473;-82
2021/08/17 05:26:29;;;;;;;3.97;2.20;;;22.60;53.10;;;;;;5064547;28;20468;-81
2021/08/17 05:28:59;;;;;;;4.60;2.33;;;22.60;53.10;;;;;;5064952;28;20489;-81
2021/08/17 05:31:26;;;;;;;3.40;2.30;;;22.70;53.00;;;;;;5063929;28;20536;-80
2021/08/17 05:33:54;;;;;;;4.63;2.20;;;22.70;52.90;;;;;;5064574;28;20465;-80
2021/08/17 05:36:22;;;;;;;4.80;1.80;;;22.70;52.90;;;;;;5064408;28;20475;-80
2021/08/17 05:38:50;;;;;;;3.03;1.70;;;22.70;52.90;;;;;;5064843;28;20512;-81
2021/08/17 05:41:17;;;;;;;2.23;1.73;;;22.70;52.80;;;;;;5064496;28;20778;-80
2021/08/17 05:43:45;;;;;;;2.80;1.90;;;22.80;52.80;;;;;;5064858;28;20447;-80
2021/08/17 05:46:14;;;;;;;3.03;2.30;;;22.80;52.90;;;;;;5064766;28;20507;-80
2021/08/17 05:48:42;;;;;;;4.70;1.70;;;22.80;52.80;;;;;;5064179;28;20549;-80
2021/08/17 05:51:11;;;;;;;2.83;1.53;;;22.80;52.80;;;;;;5064259;28;20441;-80
2021/08/17 05:53:38;;;;;;;3.67;1.50;;;22.80;52.80;;;;;;5064267;28;20444;-80
2021/08/17 05:56:06;;;;;;;13.73;2.83;;;22.80;52.70;;;;;;5064522;28;20444;-80
2021/08/17 05:58:34;;;;;;;3.00;1.73;;;22.90;52.70;;;;;;5064738;28;20454;-81
2021/08/17 06:01:02;;;;;;;2.97;2.00;;;22.90;52.70;;;;;;5064065;28;20512;-81
2021/08/17 06:03:50;;;;;;;6.47;1.93;;;22.90;52.50;;;;;;5064266;28;20541;-80
2021/08/17 06:06:18;;;;;;;3.33;1.80;;;23.00;52.50;;;;;;5064262;28;20433;-80
2021/08/17 06:08:46;;;;;;;6.33;2.20;;;23.00;52.30;;;;;;5063742;28;20493;-80
2021/08/17 06:11:14;;;;;;;5.87;1.90;;;23.10;52.10;;;;;;5064440;28;20537;-81
2021/08/17 06:13:42;;;;;;;3.37;2.30;;;23.10;52.30;;;;;;5064689;28;20438;-80
2021/08/17 06:16:10;;;;;;;4.43;2.20;;;23.10;52.20;;;;;;5064699;28;20465;-80
2021/08/17 06:18:38;;;;;;;2.60;1.93;;;23.20;52.10;;;;;;5063969;28;20446;-80
2021/08/17 06:21:07;;;;;;;3.30;1.80;;;23.20;52.00;;;;;;5067163;28;20469;-80
2021/08/17 06:23:35;;;;;;;5.70;2.10;;;23.20;51.90;;;;;;5067955;28;20470;-81
2021/08/17 06:26:03;;;;;;;6.50;1.93;;;23.30;51.90;;;;;;5067976;28;20465;-82
2021/08/17 06:28:31;;;;;;;4.30;2.00;;;23.40;51.80;;;;;;5067257;28;20449;-81
2021/08/17 06:30:58;;;;;;;1.80;1.63;;;23.40;51.70;;;;;;5068367;28;20478;-81
2021/08/17 06:33:26;;;;;;;6.00;1.90;;;23.40;51.70;;;;;;5068401;28;20441;-81
2021/08/17 06:35:54;;;;;;;5.10;1.80;;;23.50;51.50;;;;;;5068690;28;20533;-79
2021/08/17 06:38:23;;;;;;;3.73;2.17;;;23.50;51.60;;;;;;5067133;28;20507;-78
2021/08/17 06:40:51;;;;;;;3.90;2.40;;;23.50;51.50;;;;;;5068173;28;20443;-79
2021/08/17 06:43:19;;;;;;;4.70;2.10;;;23.60;51.50;;;;;;5067226;28;20477;-77
2021/08/17 06:45:47;;;;;;;7.10;2.20;;;23.70;51.50;;;;;;5067815;28;20480;-78
2021/08/17 06:48:15;;;;;;;4.70;2.10;;;23.70;51.30;;;;;;5067447;28;20581;-78
2021/08/17 06:50:44;;;;;;;4.43;1.80;;;23.80;51.30;;;;;;5066973;28;20453;-78
2021/08/17 06:53:11;;;;;;;4.40;1.80;;;23.90;51.20;;;;;;5067710;28;20476;-79
2021/08/17 06:55:41;;;;;;;2.60;1.67;;;23.90;51.10;;;;;;5067557;28;20455;-78
2021/08/17 06:58:12;;;;;;;3.40;1.90;;;24.00;51.00;;;;;;5067143;28;20532;-79
2021/08/17 07:00:40;;;;;;;2.50;1.53;;;24.00;50.90;;;;;;5067194;28;20423;-79
2021/08/17 07:03:09;;;;;;;2.20;1.90;;;24.10;51.00;;;;;;5067766;28;20426;-78
2021/08/17 07:05:40;;;;;;;3.87;1.77;;;24.30;50.70;;;;;;5067516;28;20447;-78
2021/08/17 07:08:08;;;;;;;5.30;2.10;;;24.30;50.60;;;;;;5067292;28;20459;-78
2021/08/17 07:10:36;;;;;;;3.30;1.93;;;24.50;50.50;;;;;;5068792;28;20438;-78
2021/08/17 07:13:23;;;;;;;2.40;1.80;;;24.50;50.30;;;;;;5070002;28;20479;-78
2021/08/17 07:15:51;;;;;;;3.67;2.17;;;24.70;50.20;;;;;;5068860;28;20436;-78
2021/08/17 07:18:18;;;;;;;3.60;1.77;;;24.70;50.20;;;;;;5067301;28;20442;-80
2021/08/17 07:20:46;;;;;;;2.50;1.83;;;24.90;50.00;;;;;;5067032;28;20445;-78
2021/08/17 07:23:14;;;;;;;4.40;2.00;;;25.00;50.00;;;;;;5067656;28;20472;-79
2021/08/17 07:25:42;;;;;;;5.27;2.30;;;25.10;49.80;;;;;;5066975;28;20430;-78
2021/08/17 07:28:10;;;;;;;2.60;1.93;;;25.10;49.60;;;;;;5066816;28;20449;-77
2021/08/17 07:30:40;;;;;;;5.90;1.83;;;25.20;49.70;;;;;;5066939;28;20437;-79
2021/08/17 07:33:08;;;;;;;3.07;1.80;;;25.30;49.70;;;;;;5066831;28;20408;-78
2021/08/17 07:35:36;;;;;;;3.70;1.90;;;25.40;49.80;;;;;;5046901;28;20462;-78
2021/08/17 07:38:04;;;;;;;1.77;1.50;;;25.50;49.60;;;;;;5045157;28;20501;-79
2021/08/17 07:40:32;;;;;;;3.63;1.83;;;25.50;49.60;;;;;;5046357;28;20517;-79
2021/08/17 07:43:00;;;;;;;4.83;2.13;;;25.60;49.60;;;;;;5046033;28;20529;-78
2021/08/17 07:45:27;;;;;;;3.47;1.90;;;25.60;49.60;;;;;;5047490;28;20480;-78
2021/08/17 07:48:16;;;;;;;5.57;1.67;;;25.60;49.60;;;;;;5064698;28;20407;-78
2021/08/17 07:50:44;;;;;;;2.77;1.80;;;25.70;49.40;;;;;;5066492;28;20674;-78
2021/08/17 07:53:12;;;;;;;3.30;2.20;;;25.80;49.60;;;;;;5066334;28;20511;-78
2021/08/17 07:55:40;;;;;;;3.17;2.00;;;25.80;49.60;;;;;;5066053;28;20426;-78
2021/08/17 07:58:07;;;;;;;3.30;2.10;;;25.70;49.70;;;;;;5065831;28;20447;-78
2021/08/17 08:00:35;;;;;;;6.80;2.30;;;25.70;49.70;;;;;;5066016;28;20497;-78
2021/08/17 08:03:04;;;;;;;3.33;1.90;;;25.80;49.80;;;;;;5066009;28;20425;-79
2021/08/17 08:05:33;;;;;;;4.97;1.97;;;25.90;49.60;;;;;;5050785;28;20443;-79
2021/08/17 08:08:01;;;;;;;3.43;1.90;;;25.90;49.40;;;;;;5045202;28;20494;-79
2021/08/17 08:10:29;;;;;;;4.80;2.20;;;25.90;49.40;;;;;;5045028;28;20437;-78
2021/08/17 08:12:57;;;;;;;3.90;2.20;;;25.90;49.30;;;;;;5045157;28;20512;-79
2021/08/17 08:15:25;;;;;;;3.00;2.07;;;25.90;49.60;;;;;;5045306;28;20529;-77
2021/08/17 08:17:53;;;;;;;5.17;2.33;;;25.90;49.40;;;;;;5045096;28;20449;-79
2021/08/17 08:20:21;;;;;;;4.27;2.50;;;25.90;49.40;;;;;;5043572;28;20460;-78
2021/08/17 08:22:50;;;;;;;2.20;2.00;;;26.00;49.50;;;;;;5043516;28;20526;-78
2021/08/17 08:25:18;;;;;;;5.10;2.30;;;26.10;49.30;;;;;;5059117;28;20564;-79
2021/08/17 08:27:46;;;;;;;3.00;1.50;;;26.10;49.20;;;;;;5063316;28;20449;-78
2021/08/17 08:30:15;;;;;;;3.90;1.97;;;26.20;49.30;;;;;;5063238;28;20471;-78
2021/08/17 08:32:42;;;;;;;4.40;2.30;;;26.20;49.70;;;;;;5063420;28;20470;-78
2021/08/17 08:35:11;;;;;;;3.77;2.00;;;26.20;49.10;;;;;;5065312;28;20479;-77
2021/08/17 08:37:38;;;;;;;5.10;1.93;;;26.10;49.00;;;;;;5067447;28;20494;-78
2021/08/17 08:40:09;;;;;;;4.53;2.30;;;26.10;49.10;;;;;;5050802;28;20522;-78
2021/08/17 08:42:37;;;;;;;7.73;2.10;;;25.90;49.30;;;;;;5051205;28;20416;-77
2021/08/17 08:45:06;;;;;;;4.70;2.27;;;25.90;49.40;;;;;;5056103;28;20438;-78
2021/08/17 08:47:35;;;;;;;4.40;2.37;;;25.90;49.70;;;;;;5051123;28;20750;-78
2021/08/17 08:50:03;;;;;;;5.80;2.40;;;25.90;49.80;;;;;;5051263;28;20457;-78
2021/08/17 08:52:31;;;;;;;3.97;2.50;;;25.90;49.80;;;;;;5050441;28;20444;-78
2021/08/17 08:55:01;;;;;;;6.37;2.53;;;25.90;49.90;;;;;;5045167;28;20477;-77
2021/08/17 08:57:30;;;;;;;4.03;2.87;;;25.90;49.80;;;;;;5062048;28;20515;-77
2021/08/17 08:59:58;;;;;;;5.37;2.30;;;26.00;49.70;;;;;;5062544;28;20467;-77
2021/08/17 09:02:28;;;;;;;3.00;2.13;;;26.00;49.60;;;;;;5062893;28;20521;-79
2021/08/17 09:04:57;;;;;;;3.50;2.27;;;26.00;49.50;;;;;;5062155;28;20412;-77
2021/08/17 09:07:36;;;;;;;3.20;2.50;;;26.00;49.60;;;;;;5054180;28;20549;-76
2021/08/17 09:10:06;;;;;;;3.10;2.40;;;26.00;49.60;;;;;;5059413;28;20461;-78
2021/08/17 09:12:36;;;;;;;7.37;3.00;;;26.00;49.60;;;;;;5044384;28;20498;-78
2021/08/17 09:15:11;;;;;;;7.77;2.87;;;26.00;49.70;;;;;;5047714;28;20436;-78
2021/08/17 09:17:40;;;;;;;5.13;2.37;;;26.00;49.80;;;;;;5055756;28;20432;-77
2021/08/17 09:20:10;;;;;;;2.60;2.40;;;26.00;49.70;;;;;;5050488;28;20546;-78
2021/08/17 09:22:37;;;;;;;8.10;2.33;;;26.10;49.70;;;;;;5053669;28;20500;-77
2021/08/17 09:25:06;;;;;;;4.20;2.93;;;26.10;49.60;;;;;;5055413;28;20938;-77
2021/08/17 09:27:35;;;;;;;4.47;2.37;;;26.00;49.60;;;;;;5042406;28;20431;-77
2021/08/17 09:30:09;;;;;;;4.43;3.03;;;26.00;49.50;;;;;;5042701;28;20461;-77
2021/08/17 09:32:49;;;;;;;5.20;2.73;;;26.00;49.60;;;;;;5042382;28;20667;-78
2021/08/17 09:35:19;;;;;;;3.73;2.37;;;26.10;49.80;;;;;;5058052;28;20919;-77
2021/08/17 09:37:46;;;;;;;4.27;2.67;;;26.30;49.60;;;;;;5062970;28;20535;-77
2021/08/17 09:40:15;;;;;;;5.70;2.73;;;26.50;49.60;;;;;;5062244;28;20544;-78
2021/08/17 09:42:44;;;;;;;4.43;2.83;;;26.50;49.10;;;;;;5062660;28;20869;-77
2021/08/17 09:45:15;;;;;;;4.30;2.83;;;26.50;48.90;;;;;;5062241;28;20920;-77
2021/08/17 09:47:44;;;;;;;7.13;2.80;;;26.40;49.00;;;;;;5061926;28;20514;-78
2021/08/17 09:50:37;;;;;;;4.80;2.67;;;26.30;49.20;;;;;;5063061;28;20560;-78
2021/08/17 09:53:07;;;;;;;5.40;2.83;;;26.20;49.50;;;;;;5060201;28;20438;-78
2021/08/17 09:55:40;;;;;;;3.87;3.00;;;26.20;49.60;;;;;;5066691;28;20424;-77
2021/08/17 09:58:19;;;;;;;6.53;2.80;;;26.20;49.80;;;;;;5065488;28;20487;-78
2021/08/17 10:00:47;;;;;;;3.30;2.47;;;26.20;49.90;;;;;;5066150;28;20775;-77
2021/08/17 10:03:16;;;;;;;6.07;3.33;;;26.20;49.60;;;;;;5077261;28;20452;-77
2021/08/17 10:05:44;;;;;;;4.03;3.57;;;26.30;49.90;;;;;;5068670;28;20453;-77
2021/08/17 10:08:12;;;;;;;7.03;3.43;;;26.50;50.00;;;;;;5066594;28;20432;-77
2021/08/17 10:10:41;;;;;;;5.90;3.07;;;26.70;49.40;;;;;;5066954;28;20529;-78
2021/08/17 10:13:11;;;;;;;8.07;3.60;;;26.90;49.10;;;;;;5067527;28;21031;-78
2021/08/17 10:15:40;;;;;;;12.90;3.40;;;27.00;48.70;;;;;;5065166;28;20536;-78
2021/08/17 10:18:08;;;;;;;7.10;3.03;;;27.10;48.50;;;;;;5069001;28;20473;-78
2021/08/17 10:20:37;;;;;;;4.70;3.17;;;27.20;48.20;;;;;;5067104;28;20492;-77
2021/08/17 10:23:05;;;;;;;5.70;3.50;;;27.10;48.10;;;;;;5067376;28;20452;-77
2021/08/17 10:25:43;;;;;;;5.57;3.10;;;27.00;48.20;;;;;;5066534;28;20453;-77
2021/08/17 10:28:29;;;;;;;3.70;3.40;;;26.90;48.50;;;;;;5066412;28;20446;-77
2021/08/17 10:30:59;;;;;;;4.00;3.20;;;26.90;48.70;;;;;;5066865;28;20412;-78
2021/08/17 10:33:40;;;;;;;5.30;3.13;;;26.90;48.70;;;;;;5066262;28;20440;-78
2021/08/17 10:36:08;;;;;;;4.83;3.10;;;26.80;48.90;;;;;;5062932;28;20511;-78
2021/08/17 10:38:44;;;;;;;6.17;3.20;;;26.70;49.10;;;;;;5065065;28;20509;-78
2021/08/17 10:41:12;;;;;;;5.50;3.13;;;26.60;49.30;;;;;;5066057;28;20533;-77
2021/08/17 10:44:22;;;;;;;7.47;3.07;;;26.50;49.40;;;;;;5066435;28;20503;-76
2021/08/17 10:46:59;;;;;;;3.97;2.93;;;26.50;49.70;;;;;;5060265;28;20396;-79
2021/08/17 10:49:49;;;;;;;5.50;3.23;;;26.50;49.50;;;;;;5052947;28;20504;-79
2021/08/17 10:52:31;;;;;;;6.00;3.37;;;26.40;49.70;;;;;;5046568;28;20462;-78
2021/08/17 10:55:37;;;;;;;5.13;3.30;;;26.30;49.70;;;;;;5046761;28;20530;-78
2021/08/17 10:58:06;;;;;;;5.27;3.00;;;26.30;49.90;;;;;;4965914;28;20486;-79
2021/08/17 11:00:54;;;;;;;4.33;3.10;;;26.20;50.00;;;;;;4972414;28;20509;-78
2021/08/17 11:03:40;;;;;;;6.10;3.00;;;26.20;50.00;;;;;;5024207;28;20504;-79
2021/08/17 11:06:09;;;;;;;3.27;3.00;;;26.20;50.00;;;;;;5055619;28;20492;-78
2021/08/17 11:08:38;;;;;;;6.67;3.90;;;26.20;50.00;;;;;;5056373;28;20480;-77
2021/08/17 11:11:17;;;;;;;4.80;3.30;;;26.20;50.10;;;;;;5056948;28;20460;-78
2021/08/17 11:14:00;;;;;;;4.53;3.43;;;26.20;50.20;;;;;;5056074;28;20483;-77
2021/08/17 11:16:28;;;;;;;4.30;2.70;;;26.20;50.20;;;;;;5052860;28;20463;-79
2021/08/17 11:18:58;;;;;;;5.77;3.20;;;26.20;50.20;;;;;;5044816;28;20488;-78
2021/08/17 11:21:31;;;;;;;9.53;3.90;;;26.20;50.30;;;;;;5062175;28;20467;-78
2021/08/17 11:24:09;;;;;;;7.90;3.10;;;26.20;50.30;;;;;;5062965;28;20418;-77
2021/08/17 11:26:37;;;;;;;3.93;3.27;;;26.20;50.30;;;;;;5065121;28;20404;-78
2021/08/17 11:29:05;;;;;;;4.20;2.90;;;26.20;50.40;;;;;;5058108;28;20471;-78
2021/08/17 11:31:43;;;;;;;3.70;3.13;;;26.20;50.40;;;;;;5057931;28;20439;-78
2021/08/17 11:34:19;;;;;;;4.50;3.20;;;26.20;50.30;;;;;;5057573;28;20401;-76
2021/08/17 11:36:52;;;;;;;4.20;2.87;;;26.30;50.30;;;;;;5056567;28;20496;-78
2021/08/17 11:39:20;;;;;;;5.47;3.07;;;26.30;50.30;;;;;;5055762;28;20531;-78
2021/08/17 11:41:48;;;;;;;4.00;3.30;;;26.30;50.30;;;;;;5059447;28;20523;-81
2021/08/17 11:44:16;;;;;;;4.63;3.07;;;26.30;50.40;;;;;;5063250;28;20428;-81
2021/08/17 11:46:44;;;;;;;5.10;3.47;;;26.30;50.30;;;;;;5056422;28;20435;-79
2021/08/17 11:49:26;;;;;;;5.47;3.23;;;26.40;50.20;;;;;;5055913;28;20437;-81
2021/08/17 11:52:02;;;;;;;5.70;3.10;;;26.30;50.20;;;;;;5053985;28;20971;-78
2021/08/17 11:54:30;;;;;;;4.87;3.27;;;26.30;50.20;;;;;;5053909;28;20437;-79
2021/08/17 11:57:12;;;;;;;4.20;3.60;;;26.30;50.00;;;;;;5055276;28;20492;-80
2021/08/17 11:59:41;;;;;;;6.17;3.30;;;26.20;50.20;;;;;;5054110;28;20520;-80
2021/08/17 12:02:09;;;;;;;4.70;3.17;;;26.30;50.30;;;;;;5052883;28;20439;-79
2021/08/17 12:04:38;;;;;;;4.40;3.20;;;26.30;50.40;;;;;;5053784;28;20468;-80
2021/08/17 12:07:10;;;;;;;4.63;3.47;;;26.40;50.40;;;;;;5054637;28;20499;-79
2021/08/17 12:09:38;;;;;;;3.70;3.30;;;26.50;50.20;;;;;;5055413;28;20470;-80
2021/08/17 12:12:07;;;;;;;8.73;3.70;;;26.50;50.10;;;;;;5055167;28;20437;-81
2021/08/17 12:14:35;;;;;;;8.20;4.23;;;26.60;50.10;;;;;;5054616;28;20525;-79
2021/08/17 12:17:03;;;;;;;4.33;3.53;;;26.70;49.90;;;;;;5050691;28;20410;-79
2021/08/17 12:19:32;;;;;;;4.27;3.50;;;26.80;50.00;;;;;;5052460;28;20527;-79
2021/08/17 12:22:02;;;;;;;6.33;4.07;;;26.90;49.50;;;;;;5061740;28;20380;-77
2021/08/17 12:24:31;;;;;;;8.40;4.00;;;27.00;49.50;;;;;;5062447;28;20430;-78
2021/08/17 12:26:59;;;;;;;6.60;4.07;;;27.10;49.20;;;;;;5055094;28;20463;-78
2021/08/17 12:29:41;;;;;;;5.10;4.07;;;27.10;49.00;;;;;;5047198;28;20440;-78
2021/08/17 12:32:16;;;;;;;5.63;3.47;;;27.10;49.10;;;;;;5046896;28;20502;-77
2021/08/17 12:34:44;;;;;;;7.10;4.37;;;27.10;49.10;;;;;;5058562;28;20433;-77
2021/08/17 12:37:30;;;;;;;8.20;4.00;;;27.10;48.90;;;;;;5068079;28;20548;-79
2021/08/17 12:39:59;;;;;;;5.63;4.17;;;27.10;48.90;;;;;;5064829;28;20543;-80
2021/08/17 12:42:27;;;;;;;4.43;4.03;;;27.10;49.10;;;;;;5064285;28;20548;-79
2021/08/17 12:44:56;;;;;;;5.70;4.60;;;27.00;49.10;;;;;;5065747;28;20487;-78
2021/08/17 12:47:26;;;;;;;4.60;3.97;;;27.00;49.20;;;;;;5057495;28;20442;-77
2021/08/17 12:49:54;;;;;;;6.40;4.30;;;27.00;49.30;;;;;;5060727;28;20440;-78
2021/08/17 12:52:30;;;;;;;5.10;4.60;;;27.00;49.20;;;;;;5052858;28;20981;-77
2021/08/17 12:54:59;;;;;;;5.53;4.73;;;27.00;49.20;;;;;;5045042;28;20434;-77
2021/08/17 12:57:28;;;;;;;7.70;5.47;;;27.00;49.20;;;;;;5045485;28;20508;-77